sensor_id;sensor_type;location;lat;lon;timestamp;P1;durP1;ratioP1;P2;durP2;ratioP2
11211;SDS011;5663;50.864;12.096;2023-05-10T01:34:52;5.43;;;4.63;;
11211;SDS011;5663;50.864;12.096;2023-05-10T01:37:31;5.87;;;5.07;;
11211;SDS011;5663;50.864;12.096;2023-05-10T01:40:08;6.00;;;4.73;;
11211;SDS011;5663;50.864;12.096;2023-05-10T01:42:47;5.23;;;4.57;;
11211;SDS011;5663;50.864;12.096;2023-05-10T01:45:21;8.13;;;4.63;;
11211;SDS011;5663;50.864;12.096;2023-05-10T01:48:01;7.90;;;5.10;;
11211;SDS011;5663;50.864;12.096;2023-05-10T01:50:37;6.97;;;4.90;;
11211;SDS011;5663;50.864;12.096;2023-05-10T01:53:10;5.83;;;5.13;;
11211;SDS011;5663;50.864;12.096;2023-05-10T01:55:43;6.33;;;5.13;;
11211;SDS011;5663;50.864;12.096;2023-05-10T01:58:18;7.13;;;4.83;;
11211;SDS011;5663;50.864;12.096;2023-05-10T02:00:51;5.53;;;4.43;;
11211;SDS011;5663;50.864;12.096;2023-05-10T02:03:23;6.37;;;4.57;;
11211;SDS011;5663;50.864;12.096;2023-05-10T02:06:00;5.73;;;4.70;;
11211;SDS011;5663;50.864;12.096;2023-05-10T02:08:32;7.07;;;4.90;;
11211;SDS011;5663;50.864;12.096;2023-05-10T02:11:02;8.57;;;4.93;;
11211;SDS011;5663;50.864;12.096;2023-05-10T02:13:32;7.40;;;4.77;;
11211;SDS011;5663;50.864;12.096;2023-05-10T02:16:03;4.90;;;4.13;;
11211;SDS011;5663;50.864;12.096;2023-05-10T02:18:33;5.20;;;4.40;;
11211;SDS011;5663;50.864;12.096;2023-05-10T02:21:06;4.60;;;4.10;;
11211;SDS011;5663;50.864;12.096;2023-05-10T02:23:38;5.83;;;4.47;;
11211;SDS011;5663;50.864;12.096;2023-05-10T02:26:07;4.90;;;4.30;;
11211;SDS011;5663;50.864;12.096;2023-05-10T02:28:35;5.10;;;4.60;;
11211;SDS011;5663;50.864;12.096;2023-05-10T02:31:06;5.77;;;4.50;;
11211;SDS011;5663;50.864;12.096;2023-05-10T02:33:38;4.63;;;3.57;;
11211;SDS011;5663;50.864;12.096;2023-05-10T03:35:13;5.90;;;4.00;;
11211;SDS011;5663;50.864;12.096;2023-05-10T03:37:41;6.90;;;4.73;;
11211;SDS011;5663;50.864;12.096;2023-05-10T03:40:09;5.57;;;3.83;;
11211;SDS011;5663;50.864;12.096;2023-05-10T03:42:37;6.00;;;4.20;;
11211;SDS011;5663;50.864;12.096;2023-05-10T03:45:07;4.60;;;3.90;;
11211;SDS011;5663;50.864;12.096;2023-05-10T03:47:36;6.17;;;4.30;;
11211;SDS011;5663;50.864;12.096;2023-05-10T03:50:07;4.37;;;3.43;;
11211;SDS011;5663;50.864;12.096;2023-05-10T03:52:37;7.43;;;4.40;;
11211;SDS011;5663;50.864;12.096;2023-05-10T03:55:07;8.10;;;4.03;;
11211;SDS011;5663;50.864;12.096;2023-05-10T03:57:37;9.77;;;4.53;;
11211;SDS011;5663;50.864;12.096;2023-05-10T04:00:08;4.60;;;3.83;;
11211;SDS011;5663;50.864;12.096;2023-05-10T04:02:38;5.43;;;4.37;;
11211;SDS011;5663;50.864;12.096;2023-05-10T04:05:08;4.80;;;4.27;;
11211;SDS011;5663;50.864;12.096;2023-05-10T04:07:40;4.27;;;3.87;;
11211;SDS011;5663;50.864;12.096;2023-05-10T04:10:12;7.83;;;3.80;;
11211;SDS011;5663;50.864;12.096;2023-05-10T04:12:40;8.97;;;4.30;;
11211;SDS011;5663;50.864;12.096;2023-05-10T04:15:11;6.87;;;3.97;;
11211;SDS011;5663;50.864;12.096;2023-05-10T04:17:40;4.30;;;3.90;;
11211;SDS011;5663;50.864;12.096;2023-05-10T04:20:10;5.63;;;3.97;;
11211;SDS011;5663;50.864;12.096;2023-05-10T04:22:41;5.60;;;4.20;;
11211;SDS011;5663;50.864;12.096;2023-05-10T04:25:10;5.93;;;3.93;;
11211;SDS011;5663;50.864;12.096;2023-05-10T04:27:40;4.47;;;3.70;;
11211;SDS011;5663;50.864;12.096;2023-05-10T04:30:11;8.13;;;4.03;;
11211;SDS011;5663;50.864;12.096;2023-05-10T04:32:43;6.50;;;4.10;;
11211;SDS011;5663;50.864;12.096;2023-05-10T04:35:13;5.47;;;4.70;;
11211;SDS011;5663;50.864;12.096;2023-05-10T04:37:45;5.10;;;3.87;;
11211;SDS011;5663;50.864;12.096;2023-05-10T04:40:21;7.97;;;4.07;;
11211;SDS011;5663;50.864;12.096;2023-05-10T04:42:50;9.87;;;3.83;;
11211;SDS011;5663;50.864;12.096;2023-05-10T04:45:20;4.13;;;3.53;;
11211;SDS011;5663;50.864;12.096;2023-05-10T04:47:49;5.83;;;3.87;;
11211;SDS011;5663;50.864;12.096;2023-05-10T04:50:18;4.43;;;4.03;;
11211;SDS011;5663;50.864;12.096;2023-05-10T04:52:49;5.23;;;4.00;;
11211;SDS011;5663;50.864;12.096;2023-05-10T04:55:18;7.83;;;4.40;;
11211;SDS011;5663;50.864;12.096;2023-05-10T04:57:50;9.73;;;4.67;;
11211;SDS011;5663;50.864;12.096;2023-05-10T05:00:24;6.63;;;4.23;;
11211;SDS011;5663;50.864;12.096;2023-05-10T05:02:56;7.97;;;3.83;;
11211;SDS011;5663;50.864;12.096;2023-05-10T05:05:25;7.07;;;4.30;;
11211;SDS011;5663;50.864;12.096;2023-05-10T05:07:57;6.57;;;4.33;;
11211;SDS011;5663;50.864;12.096;2023-05-10T05:10:33;5.23;;;4.30;;
11211;SDS011;5663;50.864;12.096;2023-05-10T05:13:07;9.23;;;4.10;;
11211;SDS011;5663;50.864;12.096;2023-05-10T05:15:52;6.30;;;3.70;;
11211;SDS011;5663;50.864;12.096;2023-05-10T05:18:22;10.00;;;4.60;;
11211;SDS011;5663;50.864;12.096;2023-05-10T05:20:51;7.80;;;4.03;;
11211;SDS011;5663;50.864;12.096;2023-05-10T05:23:23;9.50;;;4.63;;
11211;SDS011;5663;50.864;12.096;2023-05-10T05:25:52;6.23;;;4.33;;
11211;SDS011;5663;50.864;12.096;2023-05-10T05:28:20;9.20;;;3.90;;
11211;SDS011;5663;50.864;12.096;2023-05-10T05:30:48;7.83;;;4.03;;
11211;SDS011;5663;50.864;12.096;2023-05-10T05:33:16;3.63;;;3.33;;
11211;SDS011;5663;50.864;12.096;2023-05-10T05:35:47;6.50;;;3.87;;
11211;SDS011;5663;50.864;12.096;2023-05-10T05:38:17;7.50;;;3.80;;
11211;SDS011;5663;50.864;12.096;2023-05-10T05:40:46;5.80;;;3.37;;
11211;SDS011;5663;50.864;12.096;2023-05-10T05:43:15;14.93;;;5.23;;
11211;SDS011;5663;50.864;12.096;2023-05-10T05:45:45;5.80;;;4.00;;
11211;SDS011;5663;50.864;12.096;2023-05-10T05:48:14;7.80;;;4.13;;
11211;SDS011;5663;50.864;12.096;2023-05-10T05:50:42;6.70;;;3.60;;
11211;SDS011;5663;50.864;12.096;2023-05-10T05:53:12;10.27;;;3.90;;
11211;SDS011;5663;50.864;12.096;2023-05-10T05:55:53;6.30;;;3.67;;
11211;SDS011;5663;50.864;12.096;2023-05-10T05:58:23;4.70;;;3.53;;
11211;SDS011;5663;50.864;12.096;2023-05-10T06:00:54;6.07;;;4.27;;
11211;SDS011;5663;50.864;12.096;2023-05-10T06:03:24;4.97;;;3.53;;
11211;SDS011;5663;50.864;12.096;2023-05-10T06:05:58;4.17;;;3.77;;
11211;SDS011;5663;50.864;12.096;2023-05-10T06:08:32;5.73;;;4.00;;
11211;SDS011;5663;50.864;12.096;2023-05-10T06:11:01;5.17;;;4.07;;
11211;SDS011;5663;50.864;12.096;2023-05-10T06:13:33;6.57;;;4.33;;
11211;SDS011;5663;50.864;12.096;2023-05-10T06:16:05;5.23;;;4.30;;
11211;SDS011;5663;50.864;12.096;2023-05-10T06:18:33;7.40;;;4.03;;
11211;SDS011;5663;50.864;12.096;2023-05-10T06:21:06;4.83;;;4.40;;
11211;SDS011;5663;50.864;12.096;2023-05-10T06:23:38;6.93;;;4.67;;
11211;SDS011;5663;50.864;12.096;2023-05-10T06:26:09;5.43;;;4.77;;
11211;SDS011;5663;50.864;12.096;2023-05-10T06:28:39;7.20;;;4.73;;
11211;SDS011;5663;50.864;12.096;2023-05-10T06:31:14;6.50;;;4.83;;
11211;SDS011;5663;50.864;12.096;2023-05-10T06:33:44;6.10;;;4.63;;
11211;SDS011;5663;50.864;12.096;2023-05-10T06:36:15;6.60;;;4.17;;
11211;SDS011;5663;50.864;12.096;2023-05-10T06:38:46;7.53;;;4.73;;
11211;SDS011;5663;50.864;12.096;2023-05-10T06:41:18;6.07;;;4.57;;
11211;SDS011;5663;50.864;12.096;2023-05-10T06:43:46;5.27;;;4.77;;
11211;SDS011;5663;50.864;12.096;2023-05-10T06:46:16;5.70;;;4.90;;
11211;SDS011;5663;50.864;12.096;2023-05-10T06:48:50;8.23;;;5.20;;
11211;SDS011;5663;50.864;12.096;2023-05-10T06:51:19;6.77;;;4.80;;
11211;SDS011;5663;50.864;12.096;2023-05-10T06:53:48;6.87;;;4.40;;
11211;SDS011;5663;50.864;12.096;2023-05-10T06:56:20;7.87;;;4.77;;
11211;SDS011;5663;50.864;12.096;2023-05-10T06:58:48;5.37;;;4.80;;
11211;SDS011;5663;50.864;12.096;2023-05-10T07:01:23;5.47;;;4.70;;
11211;SDS011;5663;50.864;12.096;2023-05-10T07:03:55;6.80;;;5.77;;
11211;SDS011;5663;50.864;12.096;2023-05-10T07:06:26;7.20;;;4.93;;
11211;SDS011;5663;50.864;12.096;2023-05-10T07:09:00;5.57;;;4.90;;
11211;SDS011;5663;50.864;12.096;2023-05-10T07:11:32;6.57;;;4.93;;
11211;SDS011;5663;50.864;12.096;2023-05-10T07:14:01;5.47;;;4.83;;
11211;SDS011;5663;50.864;12.096;2023-05-10T07:16:29;7.70;;;5.10;;
11211;SDS011;5663;50.864;12.096;2023-05-10T07:18:58;7.30;;;5.07;;
11211;SDS011;5663;50.864;12.096;2023-05-10T07:21:28;7.00;;;4.80;;
11211;SDS011;5663;50.864;12.096;2023-05-10T07:23:58;5.00;;;4.50;;
11211;SDS011;5663;50.864;12.096;2023-05-10T07:26:29;7.87;;;4.87;;
11211;SDS011;5663;50.864;12.096;2023-05-10T07:29:03;6.33;;;5.00;;
11211;SDS011;5663;50.864;12.096;2023-05-10T07:31:33;4.63;;;4.13;;
11211;SDS011;5663;50.864;12.096;2023-05-10T07:34:08;7.27;;;5.13;;
11211;SDS011;5663;50.864;12.096;2023-05-10T07:36:37;5.93;;;5.33;;
11211;SDS011;5663;50.864;12.096;2023-05-10T07:39:06;5.90;;;5.30;;
11211;SDS011;5663;50.864;12.096;2023-05-10T07:41:38;7.13;;;5.40;;
11211;SDS011;5663;50.864;12.096;2023-05-10T07:44:07;5.20;;;4.70;;
11211;SDS011;5663;50.864;12.096;2023-05-10T07:46:37;6.37;;;5.70;;
11211;SDS011;5663;50.864;12.096;2023-05-10T07:49:07;6.43;;;5.30;;
11211;SDS011;5663;50.864;12.096;2023-05-10T07:51:36;8.80;;;5.27;;
11211;SDS011;5663;50.864;12.096;2023-05-10T07:54:04;7.17;;;5.67;;
11211;SDS011;5663;50.864;12.096;2023-05-10T07:56:36;5.77;;;5.13;;
11211;SDS011;5663;50.864;12.096;2023-05-10T07:59:07;7.53;;;5.67;;
11211;SDS011;5663;50.864;12.096;2023-05-10T08:01:35;8.43;;;6.23;;
11211;SDS011;5663;50.864;12.096;2023-05-10T08:04:07;6.53;;;5.70;;
11211;SDS011;5663;50.864;12.096;2023-05-10T08:06:39;7.23;;;5.50;;
11211;SDS011;5663;50.864;12.096;2023-05-10T08:09:09;7.67;;;5.27;;
11211;SDS011;5663;50.864;12.096;2023-05-10T08:11:37;7.00;;;6.30;;
11211;SDS011;5663;50.864;12.096;2023-05-10T08:14:07;6.57;;;5.87;;
11211;SDS011;5663;50.864;12.096;2023-05-10T08:16:37;6.43;;;5.67;;
11211;SDS011;5663;50.864;12.096;2023-05-10T08:19:09;6.27;;;5.40;;
11211;SDS011;5663;50.864;12.096;2023-05-10T08:21:40;6.43;;;5.63;;
11211;SDS011;5663;50.864;12.096;2023-05-10T08:24:11;9.03;;;5.70;;
11211;SDS011;5663;50.864;12.096;2023-05-10T08:26:41;6.80;;;5.47;;
11211;SDS011;5663;50.864;12.096;2023-05-10T08:29:11;5.80;;;5.20;;
11211;SDS011;5663;50.864;12.096;2023-05-10T08:31:43;7.77;;;6.20;;
11211;SDS011;5663;50.864;12.096;2023-05-10T08:34:12;8.60;;;5.80;;
11211;SDS011;5663;50.864;12.096;2023-05-10T09:39:16;8.73;;;7.83;;
11211;SDS011;5663;50.864;12.096;2023-05-10T09:41:45;8.53;;;7.37;;
11211;SDS011;5663;50.864;12.096;2023-05-10T09:44:16;8.73;;;7.20;;
11211;SDS011;5663;50.864;12.096;2023-05-10T09:46:50;8.83;;;6.80;;
11211;SDS011;5663;50.864;12.096;2023-05-10T09:49:20;7.03;;;6.10;;
11211;SDS011;5663;50.864;12.096;2023-05-10T09:52:02;6.17;;;5.47;;
11211;SDS011;5663;50.864;12.096;2023-05-10T09:54:34;7.17;;;6.47;;
11211;SDS011;5663;50.864;12.096;2023-05-10T09:57:05;9.40;;;6.00;;
11211;SDS011;5663;50.864;12.096;2023-05-10T09:59:32;7.07;;;6.37;;
11211;SDS011;5663;50.864;12.096;2023-05-10T10:02:01;9.20;;;6.50;;
11211;SDS011;5663;50.864;12.096;2023-05-10T10:04:32;7.93;;;6.57;;
11211;SDS011;5663;50.864;12.096;2023-05-10T10:07:10;9.57;;;6.73;;
11211;SDS011;5663;50.864;12.096;2023-05-10T10:09:39;8.77;;;7.40;;
11211;SDS011;5663;50.864;12.096;2023-05-10T10:12:07;7.80;;;7.00;;
11211;SDS011;5663;50.864;12.096;2023-05-10T10:14:35;8.07;;;7.10;;
11211;SDS011;5663;50.864;12.096;2023-05-10T10:17:05;9.07;;;8.17;;
11211;SDS011;5663;50.864;12.096;2023-05-10T10:19:33;7.83;;;6.63;;
11211;SDS011;5663;50.864;12.096;2023-05-10T10:22:02;10.23;;;6.73;;
11211;SDS011;5663;50.864;12.096;2023-05-10T10:24:35;7.37;;;6.67;;
11211;SDS011;5663;50.864;12.096;2023-05-10T10:27:09;8.03;;;7.07;;
11211;SDS011;5663;50.864;12.096;2023-05-10T10:29:52;7.93;;;6.77;;
11211;SDS011;5663;50.864;12.096;2023-05-10T10:32:30;7.70;;;6.97;;
11211;SDS011;5663;50.864;12.096;2023-05-10T10:35:11;6.73;;;6.10;;
11211;SDS011;5663;50.864;12.096;2023-05-10T10:37:43;10.03;;;6.87;;
11211;SDS011;5663;50.864;12.096;2023-05-10T10:42:57;8.23;;;6.77;;
11211;SDS011;5663;50.864;12.096;2023-05-10T10:45:48;7.93;;;6.23;;
11211;SDS011;5663;50.864;12.096;2023-05-10T10:48:46;7.80;;;7.00;;
11211;SDS011;5663;50.864;12.096;2023-05-10T10:51:17;7.57;;;6.77;;
11211;SDS011;5663;50.864;12.096;2023-05-10T10:53:48;8.60;;;7.20;;
11211;SDS011;5663;50.864;12.096;2023-05-10T10:56:19;7.00;;;6.30;;
11211;SDS011;5663;50.864;12.096;2023-05-10T10:58:51;6.87;;;6.10;;
11211;SDS011;5663;50.864;12.096;2023-05-10T11:01:20;7.13;;;6.43;;
11211;SDS011;5663;50.864;12.096;2023-05-10T11:06:49;6.80;;;6.00;;
11211;SDS011;5663;50.864;12.096;2023-05-10T11:09:18;6.90;;;6.17;;
11211;SDS011;5663;50.864;12.096;2023-05-10T11:11:52;8.33;;;5.90;;
11211;SDS011;5663;50.864;12.096;2023-05-10T11:14:22;7.27;;;6.17;;
11211;SDS011;5663;50.864;12.096;2023-05-10T11:16:49;7.43;;;6.20;;
11211;SDS011;5663;50.864;12.096;2023-05-10T11:19:18;6.27;;;5.67;;
11211;SDS011;5663;50.864;12.096;2023-05-10T11:21:47;6.30;;;5.73;;
11211;SDS011;5663;50.864;12.096;2023-05-10T11:24:16;8.13;;;6.00;;
11211;SDS011;5663;50.864;12.096;2023-05-10T11:26:49;6.57;;;5.93;;
11211;SDS011;5663;50.864;12.096;2023-05-10T11:29:21;7.40;;;6.00;;
11211;SDS011;5663;50.864;12.096;2023-05-10T11:31:56;6.80;;;6.10;;
11211;SDS011;5663;50.864;12.096;2023-05-10T13:38:44;5.20;;;4.80;;
11211;SDS011;5663;50.864;12.096;2023-05-10T13:41:17;5.90;;;5.20;;
11211;SDS011;5663;50.864;12.096;2023-05-10T13:43:45;5.33;;;4.83;;
11211;SDS011;5663;50.864;12.096;2023-05-10T13:46:25;6.70;;;5.13;;
11211;SDS011;5663;50.864;12.096;2023-05-10T15:07:08;6.07;;;5.50;;
11211;SDS011;5663;50.864;12.096;2023-05-10T15:09:40;6.10;;;5.60;;
11211;SDS011;5663;50.864;12.096;2023-05-10T15:12:11;6.17;;;5.57;;
11211;SDS011;5663;50.864;12.096;2023-05-10T15:14:39;5.23;;;4.73;;
11211;SDS011;5663;50.864;12.096;2023-05-10T15:17:09;6.57;;;5.47;;
11211;SDS011;5663;50.864;12.096;2023-05-10T15:19:41;6.27;;;5.30;;
11211;SDS011;5663;50.864;12.096;2023-05-10T15:22:12;5.63;;;4.63;;
11211;SDS011;5663;50.864;12.096;2023-05-10T15:24:50;5.93;;;4.70;;
11211;SDS011;5663;50.864;12.096;2023-05-10T15:27:19;5.10;;;4.50;;
11211;SDS011;5663;50.864;12.096;2023-05-10T15:29:47;5.73;;;4.67;;
11211;SDS011;5663;50.864;12.096;2023-05-10T15:32:15;4.97;;;4.57;;
11211;SDS011;5663;50.864;12.096;2023-05-10T15:34:45;5.93;;;4.57;;
11211;SDS011;5663;50.864;12.096;2023-05-10T15:37:12;6.30;;;4.60;;
11211;SDS011;5663;50.864;12.096;2023-05-10T15:39:41;5.73;;;5.00;;
11211;SDS011;5663;50.864;12.096;2023-05-10T15:42:11;5.80;;;4.63;;
11211;SDS011;5663;50.864;12.096;2023-05-10T15:44:40;5.17;;;4.20;;
11211;SDS011;5663;50.864;12.096;2023-05-10T15:47:12;5.73;;;4.87;;
11211;SDS011;5663;50.864;12.096;2023-05-10T15:49:41;4.30;;;3.90;;
11211;SDS011;5663;50.864;12.096;2023-05-10T15:52:12;5.27;;;4.20;;
11211;SDS011;5663;50.864;12.096;2023-05-10T15:54:40;4.30;;;3.90;;
11211;SDS011;5663;50.864;12.096;2023-05-10T15:57:08;4.20;;;3.80;;
11211;SDS011;5663;50.864;12.096;2023-05-10T15:59:36;4.23;;;3.83;;
11211;SDS011;5663;50.864;12.096;2023-05-10T16:02:05;4.33;;;3.90;;
11211;SDS011;5663;50.864;12.096;2023-05-10T16:04:34;4.50;;;4.10;;
11211;SDS011;5663;50.864;12.096;2023-05-10T16:07:02;4.70;;;4.30;;
11211;SDS011;5663;50.864;12.096;2023-05-10T16:09:36;5.40;;;4.90;;
11211;SDS011;5663;50.864;12.096;2023-05-10T16:12:05;5.20;;;4.77;;
11211;SDS011;5663;50.864;12.096;2023-05-10T16:14:35;5.40;;;4.90;;
11211;SDS011;5663;50.864;12.096;2023-05-10T16:17:04;6.30;;;5.23;;
11211;SDS011;5663;50.864;12.096;2023-05-10T16:19:33;5.83;;;5.33;;
11211;SDS011;5663;50.864;12.096;2023-05-10T16:22:02;5.50;;;5.00;;
11211;SDS011;5663;50.864;12.096;2023-05-10T16:24:33;5.40;;;4.90;;
11211;SDS011;5663;50.864;12.096;2023-05-10T16:27:01;4.43;;;4.03;;
11211;SDS011;5663;50.864;12.096;2023-05-10T16:29:29;5.47;;;4.80;;
11211;SDS011;5663;50.864;12.096;2023-05-10T16:31:59;5.00;;;4.60;;
11211;SDS011;5663;50.864;12.096;2023-05-10T16:34:36;5.43;;;4.93;;
11211;SDS011;5663;50.864;12.096;2023-05-10T16:37:07;5.63;;;4.57;;
11211;SDS011;5663;50.864;12.096;2023-05-10T16:39:39;11.50;;;4.67;;
11211;SDS011;5663;50.864;12.096;2023-05-10T16:42:07;5.07;;;4.40;;
11211;SDS011;5663;50.864;12.096;2023-05-10T16:44:36;5.77;;;4.70;;
11211;SDS011;5663;50.864;12.096;2023-05-10T16:47:05;8.77;;;4.30;;
11211;SDS011;5663;50.864;12.096;2023-05-10T16:49:35;4.80;;;4.40;;
11211;SDS011;5663;50.864;12.096;2023-05-10T16:52:04;5.33;;;4.37;;
11211;SDS011;5663;50.864;12.096;2023-05-10T16:54:32;4.70;;;4.30;;
11211;SDS011;5663;50.864;12.096;2023-05-10T16:57:03;4.90;;;4.13;;
11211;SDS011;5663;50.864;12.096;2023-05-10T16:59:31;4.13;;;3.83;;
11211;SDS011;5663;50.864;12.096;2023-05-10T17:02:00;6.27;;;4.00;;
11211;SDS011;5663;50.864;12.096;2023-05-10T17:04:38;4.20;;;3.80;;
11211;SDS011;5663;50.864;12.096;2023-05-10T17:07:18;3.90;;;3.60;;
11211;SDS011;5663;50.864;12.096;2023-05-10T17:09:48;4.77;;;3.77;;
11211;SDS011;5663;50.864;12.096;2023-05-10T17:12:23;3.83;;;3.33;;
11211;SDS011;5663;50.864;12.096;2023-05-10T17:14:56;3.73;;;3.43;;
11211;SDS011;5663;50.864;12.096;2023-05-10T17:17:26;3.60;;;3.30;;
11211;SDS011;5663;50.864;12.096;2023-05-10T17:19:58;3.53;;;3.23;;
11211;SDS011;5663;50.864;12.096;2023-05-10T17:22:27;4.50;;;3.43;;
11211;SDS011;5663;50.864;12.096;2023-05-10T17:24:56;3.40;;;2.80;;
11211;SDS011;5663;50.864;12.096;2023-05-10T17:27:28;2.90;;;2.70;;
11211;SDS011;5663;50.864;12.096;2023-05-10T17:29:57;3.40;;;3.10;;
11211;SDS011;5663;50.864;12.096;2023-05-10T17:32:25;3.70;;;3.30;;
11211;SDS011;5663;50.864;12.096;2023-05-10T17:34:57;3.90;;;3.10;;
11211;SDS011;5663;50.864;12.096;2023-05-10T17:37:27;3.43;;;3.13;;
11211;SDS011;5663;50.864;12.096;2023-05-10T17:39:56;3.20;;;2.90;;
11211;SDS011;5663;50.864;12.096;2023-05-10T17:42:28;3.50;;;3.20;;
11211;SDS011;5663;50.864;12.096;2023-05-10T17:44:56;4.10;;;3.70;;
11211;SDS011;5663;50.864;12.096;2023-05-10T17:47:26;3.93;;;3.57;;
11211;SDS011;5663;50.864;12.096;2023-05-10T17:49:53;4.17;;;3.80;;
11211;SDS011;5663;50.864;12.096;2023-05-10T17:52:22;3.90;;;3.60;;
11211;SDS011;5663;50.864;12.096;2023-05-10T17:54:52;3.87;;;3.57;;
11211;SDS011;5663;50.864;12.096;2023-05-10T17:57:30;3.73;;;3.40;;
11211;SDS011;5663;50.864;12.096;2023-05-10T18:00:00;4.07;;;3.67;;
11211;SDS011;5663;50.864;12.096;2023-05-10T18:02:37;3.53;;;3.23;;
11211;SDS011;5663;50.864;12.096;2023-05-10T18:05:07;3.77;;;3.47;;
11211;SDS011;5663;50.864;12.096;2023-05-10T18:07:38;3.63;;;3.33;;
11211;SDS011;5663;50.864;12.096;2023-05-10T18:10:07;3.77;;;3.47;;
11211;SDS011;5663;50.864;12.096;2023-05-10T18:12:39;3.60;;;3.30;;
11211;SDS011;5663;50.864;12.096;2023-05-10T18:15:09;3.30;;;3.00;;
11211;SDS011;5663;50.864;12.096;2023-05-10T18:17:40;4.33;;;3.20;;
11211;SDS011;5663;50.864;12.096;2023-05-10T18:20:11;3.43;;;3.17;;
11211;SDS011;5663;50.864;12.096;2023-05-10T18:22:39;4.30;;;3.27;;
11211;SDS011;5663;50.864;12.096;2023-05-10T18:25:07;3.77;;;3.20;;
11211;SDS011;5663;50.864;12.096;2023-05-10T18:27:47;3.40;;;3.10;;
11211;SDS011;5663;50.864;12.096;2023-05-10T18:30:17;3.30;;;3.10;;
11211;SDS011;5663;50.864;12.096;2023-05-10T18:32:46;5.17;;;3.40;;
11211;SDS011;5663;50.864;12.096;2023-05-10T18:35:15;4.63;;;3.70;;
11211;SDS011;5663;50.864;12.096;2023-05-10T18:37:45;8.90;;;4.10;;
11211;SDS011;5663;50.864;12.096;2023-05-10T18:40:15;5.37;;;4.87;;
11211;SDS011;5663;50.864;12.096;2023-05-10T18:42:44;5.70;;;5.10;;
11211;SDS011;5663;50.864;12.096;2023-05-10T18:45:17;7.53;;;6.20;;
11211;SDS011;5663;50.864;12.096;2023-05-10T18:47:47;6.73;;;6.03;;
11211;SDS011;5663;50.864;12.096;2023-05-10T18:50:17;7.00;;;6.03;;
11211;SDS011;5663;50.864;12.096;2023-05-10T18:52:47;6.90;;;5.40;;
11211;SDS011;5663;50.864;12.096;2023-05-10T18:55:19;6.40;;;5.80;;
11211;SDS011;5663;50.864;12.096;2023-05-10T18:57:46;5.50;;;5.00;;
11211;SDS011;5663;50.864;12.096;2023-05-10T19:00:14;4.70;;;4.30;;
11211;SDS011;5663;50.864;12.096;2023-05-10T19:02:45;6.87;;;4.63;;
11211;SDS011;5663;50.864;12.096;2023-05-10T19:05:13;6.10;;;5.60;;
11211;SDS011;5663;50.864;12.096;2023-05-10T19:07:42;4.90;;;4.50;;
11211;SDS011;5663;50.864;12.096;2023-05-10T19:10:11;4.20;;;3.90;;
11211;SDS011;5663;50.864;12.096;2023-05-10T19:12:39;4.87;;;4.37;;
11211;SDS011;5663;50.864;12.096;2023-05-10T19:15:08;7.53;;;4.40;;
11211;SDS011;5663;50.864;12.096;2023-05-10T19:17:39;4.80;;;4.40;;
11211;SDS011;5663;50.864;12.096;2023-05-10T19:20:09;4.20;;;3.70;;
11211;SDS011;5663;50.864;12.096;2023-05-10T19:22:39;5.13;;;4.30;;
11211;SDS011;5663;50.864;12.096;2023-05-10T19:25:08;6.50;;;4.30;;
11211;SDS011;5663;50.864;12.096;2023-05-10T19:27:38;4.43;;;4.03;;
11211;SDS011;5663;50.864;12.096;2023-05-10T19:30:07;5.50;;;5.00;;
11211;SDS011;5663;50.864;12.096;2023-05-10T19:32:36;5.30;;;4.80;;
11211;SDS011;5663;50.864;12.096;2023-05-10T19:35:06;6.07;;;4.77;;
11211;SDS011;5663;50.864;12.096;2023-05-10T19:37:36;12.07;;;7.90;;
11211;SDS011;5663;50.864;12.096;2023-05-10T19:40:05;8.80;;;7.90;;
11211;SDS011;5663;50.864;12.096;2023-05-10T19:42:36;6.23;;;5.63;;
11211;SDS011;5663;50.864;12.096;2023-05-10T19:45:07;6.70;;;6.00;;
11211;SDS011;5663;50.864;12.096;2023-05-10T19:47:36;6.20;;;5.60;;
11211;SDS011;5663;50.864;12.096;2023-05-10T19:50:06;6.00;;;5.40;;
11211;SDS011;5663;50.864;12.096;2023-05-10T19:52:35;5.40;;;4.90;;
11211;SDS011;5663;50.864;12.096;2023-05-10T19:55:04;5.73;;;5.13;;
11211;SDS011;5663;50.864;12.096;2023-05-10T19:57:33;5.47;;;4.93;;
11211;SDS011;5663;50.864;12.096;2023-05-10T20:00:02;7.13;;;6.00;;
11211;SDS011;5663;50.864;12.096;2023-05-10T20:02:31;5.70;;;5.20;;
11211;SDS011;5663;50.864;12.096;2023-05-10T20:05:00;6.53;;;5.63;;
11211;SDS011;5663;50.864;12.096;2023-05-10T20:07:30;10.87;;;6.03;;
11211;SDS011;5663;50.864;12.096;2023-05-10T20:09:58;5.27;;;4.73;;
11211;SDS011;5663;50.864;12.096;2023-05-10T20:12:29;7.13;;;6.40;;
11211;SDS011;5663;50.864;12.096;2023-05-10T20:14:58;6.67;;;5.97;;
11211;SDS011;5663;50.864;12.096;2023-05-10T20:17:26;10.50;;;6.90;;
11211;SDS011;5663;50.864;12.096;2023-05-10T20:19:57;6.50;;;5.47;;
11211;SDS011;5663;50.864;12.096;2023-05-10T20:22:35;6.73;;;5.90;;
11211;SDS011;5663;50.864;12.096;2023-05-10T20:25:07;9.87;;;6.60;;
11211;SDS011;5663;50.864;12.096;2023-05-10T20:27:39;8.23;;;6.63;;
11211;SDS011;5663;50.864;12.096;2023-05-10T20:30:17;6.90;;;6.20;;
11211;SDS011;5663;50.864;12.096;2023-05-10T20:32:53;6.60;;;5.90;;
11211;SDS011;5663;50.864;12.096;2023-05-10T20:35:21;6.43;;;5.60;;
11211;SDS011;5663;50.864;12.096;2023-05-10T20:37:50;12.37;;;5.90;;
11211;SDS011;5663;50.864;12.096;2023-05-10T20:40:19;8.03;;;5.57;;
11211;SDS011;5663;50.864;12.096;2023-05-10T20:42:49;6.30;;;5.70;;
11211;SDS011;5663;50.864;12.096;2023-05-10T20:45:19;5.90;;;4.97;;
11211;SDS011;5663;50.864;12.096;2023-05-10T20:47:47;7.27;;;5.53;;
11211;SDS011;5663;50.864;12.096;2023-05-10T20:50:15;7.00;;;6.30;;
11211;SDS011;5663;50.864;12.096;2023-05-10T20:55:33;9.13;;;5.50;;
11211;SDS011;5663;50.864;12.096;2023-05-10T20:58:02;11.77;;;6.40;;
11211;SDS011;5663;50.864;12.096;2023-05-10T21:00:31;8.40;;;6.23;;
11211;SDS011;5663;50.864;12.096;2023-05-10T21:03:01;8.33;;;6.27;;
11211;SDS011;5663;50.864;12.096;2023-05-10T21:05:30;7.40;;;4.73;;
11211;SDS011;5663;50.864;12.096;2023-05-10T21:07:58;7.33;;;5.83;;
11211;SDS011;5663;50.864;12.096;2023-05-10T21:10:28;6.83;;;6.20;;
11211;SDS011;5663;50.864;12.096;2023-05-10T21:12:56;7.33;;;5.20;;
11211;SDS011;5663;50.864;12.096;2023-05-10T21:15:25;6.53;;;5.50;;
11211;SDS011;5663;50.864;12.096;2023-05-10T21:17:53;6.60;;;6.00;;
11211;SDS011;5663;50.864;12.096;2023-05-10T21:20:21;8.97;;;5.53;;
11211;SDS011;5663;50.864;12.096;2023-05-10T21:22:50;6.73;;;6.03;;
11211;SDS011;5663;50.864;12.096;2023-05-10T21:25:18;6.50;;;5.70;;
11211;SDS011;5663;50.864;12.096;2023-05-10T21:27:48;8.57;;;6.70;;
11211;SDS011;5663;50.864;12.096;2023-05-10T21:30:16;6.40;;;5.80;;
11211;SDS011;5663;50.864;12.096;2023-05-10T21:32:45;6.47;;;5.20;;
11211;SDS011;5663;50.864;12.096;2023-05-10T21:35:14;8.17;;;5.50;;
11211;SDS011;5663;50.864;12.096;2023-05-10T21:37:43;6.57;;;5.77;;
11211;SDS011;5663;50.864;12.096;2023-05-10T21:40:11;11.13;;;7.07;;
11211;SDS011;5663;50.864;12.096;2023-05-10T21:42:40;6.90;;;6.20;;
11211;SDS011;5663;50.864;12.096;2023-05-10T21:45:12;6.07;;;5.30;;
11211;SDS011;5663;50.864;12.096;2023-05-10T21:47:56;9.30;;;4.90;;
11211;SDS011;5663;50.864;12.096;2023-05-10T21:50:28;7.67;;;4.47;;
11211;SDS011;5663;50.864;12.096;2023-05-10T21:53:00;3.60;;;3.30;;
11211;SDS011;5663;50.864;12.096;2023-05-10T21:55:30;3.70;;;3.10;;
11211;SDS011;5663;50.864;12.096;2023-05-10T21:57:59;4.50;;;3.10;;
11211;SDS011;5663;50.864;12.096;2023-05-10T22:00:29;3.40;;;3.10;;
11211;SDS011;5663;50.864;12.096;2023-05-10T22:02:57;4.43;;;2.87;;
11211;SDS011;5663;50.864;12.096;2023-05-10T22:05:25;3.13;;;2.83;;
11211;SDS011;5663;50.864;12.096;2023-05-10T22:07:54;3.00;;;2.80;;
11211;SDS011;5663;50.864;12.096;2023-05-10T22:10:23;3.13;;;2.73;;
11211;SDS011;5663;50.864;12.096;2023-05-10T22:12:53;3.33;;;2.47;;
11211;SDS011;5663;50.864;12.096;2023-05-10T22:15:24;2.77;;;2.13;;